TimeCDT,TemperatureF,Dew PointF,Humidity,Sea Level PressureIn,VisibilityMPH,Wind Direction,Wind SpeedMPH,Gust SpeedMPH,PrecipitationIn,Events,Conditions,WindDirDegrees,DateUTC
12:15 AM,28.8,27.5,95,30.41,10.0,Calm,Calm,-,N/A,,Clear,0,2013-10-14 05:15:00
12:35 AM,28.4,27.3,96,30.41,10.0,Calm,Calm,-,N/A,,Clear,0,2013-10-14 05:35:00
12:55 AM,28.2,27.0,95,30.42,10.0,Calm,Calm,-,N/A,,Clear,0,2013-10-14 05:55:00
1:15 AM,28.2,26.8,94,30.42,10.0,Calm,Calm,-,N/A,,Clear,0,2013-10-14 06:15:00
1:35 AM,28.2,27.1,96,30.43,10.0,Calm,Calm,-,N/A,,Clear,0,2013-10-14 06:35:00
1:55 AM,28.4,27.1,95,30.42,10.0,Calm,Calm,-,N/A,,Clear,0,2013-10-14 06:55:00
2:15 AM,27.9,26.6,95,30.43,10.0,Calm,Calm,-,N/A,,Clear,0,2013-10-14 07:15:00
2:35 AM,27.3,26.1,95,30.43,10.0,Calm,Calm,-,N/A,,Clear,0,2013-10-14 07:35:00
2:55 AM,26.6,25.0,94,30.43,10.0,Calm,Calm,-,N/A,,Clear,0,2013-10-14 07:55:00
3:15 AM,27.3,26.1,95,30.43,10.0,Calm,Calm,-,N/A,,Clear,0,2013-10-14 08:15:00
3:35 AM,27.0,25.7,95,30.43,10.0,Calm,Calm,-,N/A,,Clear,0,2013-10-14 08:35:00
3:55 AM,25.9,24.6,95,30.43,10.0,Calm,Calm,-,N/A,,Clear,0,2013-10-14 08:55:00
4:15 AM,27.0,25.7,95,30.43,10.0,Calm,Calm,-,N/A,,Clear,0,2013-10-14 09:15:00
4:35 AM,26.4,25.0,94,30.43,10.0,Calm,Calm,-,N/A,,Clear,0,2013-10-14 09:35:00
4:55 AM,25.7,24.6,96,30.42,10.0,Calm,Calm,-,N/A,,Clear,0,2013-10-14 09:55:00
5:15 AM,25.7,24.4,95,30.42,10.0,Calm,Calm,-,N/A,,Clear,0,2013-10-14 10:15:00
5:35 AM,26.1,24.6,94,30.43,10.0,Calm,Calm,-,N/A,,Clear,0,2013-10-14 10:35:00
5:55 AM,25.7,24.3,94,30.43,10.0,Calm,Calm,-,N/A,,Clear,0,2013-10-14 10:55:00
6:15 AM,26.1,24.6,94,30.43,10.0,Calm,Calm,-,N/A,,Clear,0,2013-10-14 11:15:00
6:35 AM,25.5,24.3,95,30.44,10.0,Calm,Calm,-,N/A,,Clear,0,2013-10-14 11:35:00
6:55 AM,26.4,25.2,95,30.43,10.0,Calm,Calm,-,N/A,,Clear,0,2013-10-14 11:55:00
7:15 AM,25.3,23.7,94,30.43,10.0,Calm,Calm,-,N/A,,Clear,0,2013-10-14 12:15:00
7:35 AM,27.0,25.5,94,30.43,10.0,Calm,Calm,-,N/A,,Clear,0,2013-10-14 12:35:00
7:55 AM,26.6,25.2,94,30.42,10.0,Calm,Calm,-,N/A,,Clear,0,2013-10-14 12:55:00
8:15 AM,29.7,28.4,95,30.42,10.0,Calm,Calm,-,N/A,,Clear,0,2013-10-14 13:15:00
8:35 AM,31.8,30.6,95,30.41,10.0,Calm,Calm,-,N/A,,Clear,0,2013-10-14 13:35:00
8:55 AM,33.3,32.0,95,30.41,10.0,Calm,Calm,-,N/A,,Clear,0,2013-10-14 13:55:00
9:15 AM,36.0,34.7,95,30.41,10.0,Calm,Calm,-,N/A,,Clear,0,2013-10-14 14:15:00
9:35 AM,38.8,37.6,95,30.40,10.0,Calm,Calm,-,N/A,,Clear,0,2013-10-14 14:35:00
9:55 AM,42.1,37.0,82,30.41,10.0,SE,3.5,-,N/A,,Clear,140,2013-10-14 14:55:00
10:15 AM,46.9,36.5,67,30.41,10.0,SE,3.5,-,N/A,,Clear,130,2013-10-14 15:15:00
10:35 AM,47.5,35.8,64,30.40,10.0,Calm,Calm,-,N/A,,Clear,0,2013-10-14 15:35:00
10:55 AM,47.8,36.1,64,30.40,10.0,ESE,3.5,-,N/A,,Clear,120,2013-10-14 15:55:00
11:15 AM,48.4,36.0,62,30.40,10.0,ESE,3.5,-,N/A,,Clear,110,2013-10-14 16:15:00
11:35 AM,49.8,36.5,60,30.40,10.0,Calm,Calm,-,N/A,,Clear,0,2013-10-14 16:35:00
11:55 AM,52.7,36.7,55,30.39,10.0,ESE,4.6,-,N/A,,Clear,110,2013-10-14 16:55:00
12:15 PM,52.9,35.2,51,30.38,10.0,ESE,3.5,-,N/A,,Clear,110,2013-10-14 17:15:00
12:35 PM,54.9,35.6,48,30.37,10.0,SE,3.5,-,N/A,,Clear,130,2013-10-14 17:35:00
12:55 PM,56.7,35.4,45,30.36,10.0,SSE,4.6,-,N/A,,Clear,160,2013-10-14 17:55:00
1:15 PM,55.9,35.6,46,30.35,10.0,SSE,3.5,-,N/A,,Clear,150,2013-10-14 18:15:00
1:35 PM,55.8,35.4,46,30.33,10.0,ESE,4.6,-,N/A,,Clear,120,2013-10-14 18:35:00
1:55 PM,57.6,34.7,42,30.32,10.0,SSE,8.1,-,N/A,,Clear,160,2013-10-14 18:55:00
2:15 PM,57.6,35.1,43,30.31,10.0,ESE,4.6,-,N/A,,Clear,110,2013-10-14 19:15:00
2:35 PM,55.9,34.5,45,30.30,10.0,ESE,3.5,-,N/A,,Clear,110,2013-10-14 19:35:00
2:55 PM,55.8,35.6,47,30.28,10.0,East,5.8,-,N/A,,Clear,80,2013-10-14 19:55:00
3:15 PM,55.6,36.5,49,30.27,10.0,East,5.8,-,N/A,,Clear,80,2013-10-14 20:15:00
3:35 PM,55.8,35.4,46,30.26,10.0,ESE,3.5,-,N/A,,Clear,120,2013-10-14 20:35:00
3:55 PM,55.8,35.6,47,30.26,10.0,ESE,5.8,-,N/A,,Clear,120,2013-10-14 20:55:00
4:15 PM,55.6,35.1,46,30.26,10.0,East,4.6,-,N/A,,Clear,100,2013-10-14 21:15:00
4:35 PM,54.9,34.0,45,30.25,10.0,ESE,5.8,-,N/A,,Clear,110,2013-10-14 21:35:00
4:55 PM,54.5,34.5,47,30.24,10.0,East,5.8,-,N/A,,Clear,100,2013-10-14 21:55:00
5:15 PM,53.8,35.1,49,30.23,10.0,East,4.6,-,N/A,,Clear,100,2013-10-14 22:15:00
5:35 PM,53.1,34.9,50,30.23,10.0,Calm,Calm,-,N/A,,Clear,0,2013-10-14 22:35:00
5:55 PM,52.3,35.6,53,30.23,10.0,East,3.5,-,N/A,,Clear,100,2013-10-14 22:55:00
6:15 PM,51.8,35.6,54,30.23,10.0,ESE,3.5,-,N/A,,Clear,110,2013-10-14 23:15:00
6:35 PM,51.1,36.3,57,30.23,10.0,Calm,Calm,-,N/A,,Clear,0,2013-10-14 23:35:00
6:55 PM,51.3,36.5,57,30.23,10.0,East,4.6,-,N/A,,Clear,100,2013-10-14 23:55:00
7:15 PM,50.9,36.9,59,30.23,10.0,Calm,Calm,-,N/A,,Clear,0,2013-10-15 00:15:00
7:35 PM,50.0,37.0,61,30.22,10.0,East,4.6,-,N/A,,Clear,100,2013-10-15 00:35:00
7:55 PM,50.2,37.4,62,30.22,10.0,East,3.5,-,N/A,,Clear,100,2013-10-15 00:55:00
8:15 PM,49.8,37.8,63,30.23,10.0,ESE,4.6,-,N/A,,Clear,110,2013-10-15 01:15:00
8:35 PM,50.0,38.5,65,30.23,10.0,ESE,4.6,-,N/A,,Clear,110,2013-10-15 01:35:00
8:55 PM,50.0,39.7,68,30.23,10.0,East,3.5,-,N/A,,Scattered Clouds,100,2013-10-15 01:55:00
9:15 PM,49.5,40.5,71,30.22,10.0,ESE,4.6,-,N/A,,Scattered Clouds,110,2013-10-15 02:15:00
9:35 PM,49.3,41.2,74,30.21,10.0,ESE,4.6,-,N/A,,Overcast,120,2013-10-15 02:35:00
9:55 PM,48.7,41.4,76,30.20,10.0,SE,8.1,-,N/A,,Scattered Clouds,130,2013-10-15 02:55:00
10:15 PM,48.4,41.9,78,30.19,10.0,ESE,8.1,-,N/A,,Scattered Clouds,120,2013-10-15 03:15:00
10:35 PM,48.2,41.5,78,30.19,10.0,ESE,4.6,-,N/A,,Scattered Clouds,110,2013-10-15 03:35:00
10:55 PM,48.2,41.7,78,30.18,10.0,ESE,5.8,-,N/A,,Scattered Clouds,120,2013-10-15 03:55:00
11:15 PM,47.5,41.2,79,30.18,10.0,ESE,5.8,-,N/A,,Scattered Clouds,120,2013-10-15 04:15:00
11:35 PM,46.8,41.0,80,30.16,10.0,ESE,4.6,-,N/A,,Scattered Clouds,110,2013-10-15 04:35:00
11:55 PM,46.4,41.0,81,30.16,10.0,ESE,8.1,-,N/A,,Scattered Clouds,110,2013-10-15 04:55:00